South Fork, Missouri
Current Conditions -  °F | °C
As of 10:53 PM on Wednesday 26 Nov 2014 (Local Time) from KUNO Reporting Station
Overcast Overcast  
Wind Chill: 24°   Ceiling: 2400
Heat Index: 35°   Visibility: 10mi
Dew Point: 26°   Wind: 22mph
Humidity: 70%   Direction: 310°NW
Pressure: 30.2"   Gusts: 31mph
Location:  36.63°N, 91.96°W
Report Text: KUNO 270453Z AUTO 31019G27KT 10SM OVC024 02/M03 A3020 RMK AO2 PK WND 32030/0443 SLP236 T00171033
Loading
Personal Weather Stations






























Interactive Weather Map New forecast layout! Learn more

10-Day Weather Forecast

Advertisements
Track Severe Weather on mobile